Time;durP1;ratioP1;P1;durP2;ratioP2;P2;SDS_P1;SDS_P2;PMS_P1;PMS_P2;Temp;Humidity;BMP_temperature;BMP_pressure;BME280_temperature;BME280_humidity;BME280_pressure;Samples;Min_cycle;Max_cycle;Signal;HPM_P1;HPM_P2
2022/02/09 00:00:42;;;;;;;;;19.00;18.00;;;;;7.15;84.15;102538.28;5101559;27;46168;-78
2022/02/09 00:03:13;;;;;;;;;17.33;15.67;;;;;7.12;84.25;102539.31;5102779;27;45196;-78
2022/02/09 00:08:08;;;;;;;;;20.67;16.33;;;;;6.95;84.15;102524.63;5102980;27;45304;-78
2022/02/09 00:10:36;;;;;;;;;18.00;18.00;;;;;6.92;84.38;102520.38;5102776;27;45338;-78
2022/02/09 00:15:37;;;;;;;;;19.67;16.67;;;;;6.87;84.56;102535.72;5102593;27;45289;-78
2022/02/09 00:42:24;;;;;;;;;19.33;15.00;;;;;6.54;85.55;102494.78;5122735;27;45263;-79
2022/02/09 01:11:14;;;;;;;;;21.00;19.33;;;;;6.54;85.75;102492.16;5121912;27;46069;-78
2022/02/09 01:11:47;;;;;;;;;15.67;15.00;;;;;6.44;85.14;102469.00;5122265;27;45329;-78
2022/02/09 01:38:56;;;;;;;;;22.33;22.00;;;;;6.22;85.60;102469.59;5080883;28;45359;-78
2022/02/09 01:57:12;;;;;;;;;25.50;21.75;;;;;6.18;85.88;102479.53;5080412;28;45300;-78
2022/02/09 01:59:39;;;;;;;;;23.25;20.75;;;;;6.14;85.62;102466.66;5079164;28;48362;-79
2022/02/09 02:02:06;;;;;;;;;22.75;22.75;;;;;6.11;85.59;102469.47;5079317;28;45416;-78
2022/02/09 02:04:32;;;;;;;;;22.00;20.25;;;;;6.04;85.38;102459.31;5080699;27;45291;-79
2022/02/09 02:07:00;;;;;;;;;18.50;17.50;;;;;6.11;85.24;102467.66;5079249;28;46150;-78
2022/02/09 02:09:28;;;;;;;;;21.25;21.25;;;;;5.99;85.50;102450.81;5080236;27;46151;-78
2022/02/09 02:14:43;;;;;;;;;21.00;19.00;;;;;6.12;85.23;102473.81;5080619;28;45215;-78
2022/02/09 02:17:27;;;;;;;;;19.67;19.67;;;;;6.05;85.02;102453.09;5080322;27;45570;-78
2022/02/09 02:19:59;;;;;;;;;23.33;20.33;;;;;5.90;84.98;102433.81;5080248;28;45534;-78
2022/02/09 02:22:38;;;;;;;;;21.00;19.75;;;;;6.00;84.72;102464.88;5080360;28;45394;-78
2022/02/09 02:38:47;;;;;;;;;16.33;16.33;;;;;5.74;85.06;102439.25;5079890;28;45408;-78
2022/02/09 02:41:58;;;;;;;;;15.33;13.67;;;;;5.80;85.29;102438.84;5079434;28;45356;-78
2022/02/09 02:59:44;;;;;;;;;21.67;20.00;;;;;5.48;85.57;102412.75;5079978;28;45686;-78
2022/02/09 03:17:35;;;;;;;;;20.33;19.00;;;;;5.49;85.38;102393.38;5085684;27;45417;-78
2022/02/09 03:23:15;;;;;;;;;24.00;21.25;;;;;5.52;85.23;102392.31;5088295;27;45267;-78
2022/02/09 03:26:22;;;;;;;;;19.50;18.25;;;;;5.39;85.03;102372.00;5121710;27;45230;-78
2022/02/09 03:47:50;;;;;;;;;20.00;20.00;;;;;5.28;85.59;102329.69;5115509;27;45380;-77
2022/02/09 03:58:00;;;;;;;;;26.00;23.00;;;;;5.24;85.12;102329.03;5099036;27;45264;-78
2022/02/09 04:00:26;;;;;;;;;26.00;24.00;;;;;5.28;85.16;102337.59;5122566;27;45321;-78
2022/02/09 04:02:57;;;;;;;;;26.00;20.00;;;;;5.23;85.49;102323.84;5123654;27;45462;-78
2022/02/09 04:05:22;;;;;;;;;24.00;24.00;;;;;5.29;85.10;102328.72;5122181;27;47374;-78
2022/02/09 04:07:48;;;;;;;;;20.25;19.50;;;;;5.22;85.31;102324.81;5121768;27;45330;-78
2022/02/09 04:10:20;;;;;;;;;22.75;20.50;;;;;5.17;84.74;102311.94;5123628;27;45545;-79
2022/02/09 04:17:45;;;;;;;;;25.00;21.25;;;;;5.24;85.07;102313.22;5119263;27;45339;-78
2022/02/09 04:22:19;;;;;;;;;21.50;20.25;;;;;5.26;84.96;102318.38;5103039;27;45331;-78
2022/02/09 04:36:57;;;;;;;;;26.00;21.00;;;;;5.08;84.91;102304.59;5101247;27;45380;-78
2022/02/09 04:39:30;;;;;;;;;23.00;19.67;;;;;5.01;84.46;102294.50;5102347;27;45176;-78
2022/02/09 04:50:16;;;;;;;;;21.25;19.25;;;;;4.96;84.59;102301.81;5102125;27;45380;-78
2022/02/09 04:58:00;;;;;;;;;22.25;22.25;;;;;4.84;84.44;102311.38;5101891;27;46152;-78
2022/02/09 05:27:02;;;;;;;;;22.75;22.75;;;;;4.19;84.41;102307.47;5121941;27;45161;-78
2022/02/09 05:29:28;;;;;;;;;21.50;20.25;;;;;4.23;84.26;102322.13;5122233;27;45276;-78
2022/02/09 05:31:53;;;;;;;;;20.00;18.00;;;;;4.28;84.49;102341.97;5122329;27;45201;-79
2022/02/09 05:34:19;;;;;;;;;23.00;22.00;;;;;4.18;84.16;102330.31;5121021;27;45462;-78
2022/02/09 05:36:45;;;;;;;;;22.75;20.75;;;;;4.22;84.10;102337.06;5122088;27;45594;-78
2022/02/09 05:39:12;;;;;;;;;22.50;22.50;;;;;4.10;84.22;102317.59;5121958;27;45334;-78
2022/02/09 05:41:43;;;;;;;;;22.50;21.50;;;;;4.12;84.64;102322.78;5121848;27;45357;-78
2022/02/09 05:44:10;;;;;;;;;23.00;23.00;;;;;4.13;84.28;102330.59;5122179;27;45275;-79
2022/02/09 05:51:57;;;;;;;;;21.25;21.25;;;;;4.02;84.59;102320.72;5121798;27;45348;-79
2022/02/09 05:59:38;;;;;;;;;34.25;32.50;;;;;4.02;84.56;102330.41;5096757;27;45444;-79
2022/02/09 06:02:03;;;;;;;;;31.75;30.50;;;;;4.01;84.65;102331.34;5105426;27;45374;-77
2022/02/09 06:04:29;;;;;;;;;49.50;38.00;;;;;3.92;84.43;102314.28;5121916;27;45487;-78
2022/02/09 06:06:54;;;;;;;;;37.75;34.50;;;;;3.90;84.73;102308.28;5120372;27;47320;-76
2022/02/09 06:09:20;;;;;;;;;36.00;34.00;;;;;3.89;83.96;102311.88;5121415;27;45289;-80
2022/02/09 06:11:51;;;;;;;;;45.75;37.25;;;;;3.91;84.31;102323.13;5121390;27;45286;-77
2022/02/09 06:22:04;;;;;;;;;42.00;36.25;;;;;3.71;84.85;102327.78;5124776;27;45301;-88
2022/02/09 06:24:30;;;;;;;;;32.50;29.25;;;;;3.65;84.73;102321.09;5123410;27;45498;-88
2022/02/09 06:26:56;;;;;;;;;35.00;32.25;;;;;3.66;84.33;102320.16;5126687;27;46171;-86
2022/02/09 06:29:22;;;;;;;;;31.00;26.75;;;;;3.71;84.37;102332.22;5130945;27;45050;-86
2022/02/09 06:31:48;;;;;;;;;29.00;24.00;;;;;3.70;84.01;102327.88;5124457;27;45328;-83
2022/02/09 06:34:17;;;;;;;;;34.25;29.25;;;;;3.78;83.74;102347.53;5122686;27;45308;-82
2022/02/09 06:36:48;;;;;;;;;24.25;23.75;;;;;3.65;83.93;102336.03;5122362;27;45151;-83
2022/02/09 06:39:15;;;;;;;;;28.50;26.75;;;;;3.66;84.13;102346.44;5123301;27;45317;-82
2022/02/09 06:41:41;;;;;;;;;31.25;29.25;;;;;3.56;84.24;102342.66;5123651;27;45266;-82
2022/02/09 06:44:08;;;;;;;;;29.50;26.25;;;;;3.63;84.24;102357.19;5124500;27;45223;-83
2022/02/09 06:46:36;;;;;;;;;31.25;28.75;;;;;3.57;84.43;102352.28;5125217;27;45381;-82
2022/02/09 06:49:05;;;;;;;;;27.25;24.00;;;;;3.56;84.19;102347.09;5106532;27;47012;-82
2022/02/09 06:51:39;;;;;;;;;30.00;27.75;;;;;3.37;84.36;102322.69;5120005;27;45379;-80
2022/02/09 06:57:03;;;;;;;;;33.50;31.00;;;;;3.40;84.33;102338.31;5072600;28;45504;-81
2022/02/09 06:59:29;;;;;;;;;34.00;27.75;;;;;3.33;84.10;102328.22;5091742;27;47379;-82
2022/02/09 07:02:04;;;;;;;;;26.25;23.75;;;;;3.30;84.44;102325.75;5081416;27;45416;-81
2022/02/09 07:04:29;;;;;;;;;32.50;30.75;;;;;3.21;84.10;102317.47;5081589;28;45503;-80
2022/02/09 07:06:55;;;;;;;;;34.00;31.25;;;;;3.32;84.71;102345.75;5079656;27;45345;-80
2022/02/09 07:09:21;;;;;;;;;28.25;28.25;;;;;3.08;84.72;102312.03;5080592;27;46390;-79
2022/02/09 07:11:47;;;;;;;;;32.25;30.25;;;;;3.27;84.82;102346.00;5096584;27;45385;-80
2022/02/09 07:14:12;;;;;;;;;32.75;31.25;;;;;3.18;84.74;102327.31;5100214;27;45302;-82
2022/02/09 07:16:38;;;;;;;;;34.25;32.00;;;;;3.23;84.47;102335.78;5098715;27;46504;-80
2022/02/09 07:19:07;;;;;;;;;32.50;30.00;;;;;3.11;84.94;102318.94;5099999;27;46200;-81
2022/02/09 07:21:34;;;;;;;;;26.25;23.50;;;;;3.30;84.84;102352.91;5100233;27;45204;-81
2022/02/09 07:24:01;;;;;;;;;30.50;29.00;;;;;3.15;85.73;102329.16;5100021;27;45525;-82
2022/02/09 07:26:30;;;;;;;;;30.50;29.00;;;;;2.94;84.60;102296.22;5099669;27;45410;-81
2022/02/09 07:28:58;;;;;;;;;36.00;30.00;;;;;3.27;85.07;102353.91;5099852;27;45690;-79
2022/02/09 07:31:40;;;;;;;;;38.25;32.00;;;;;3.17;85.56;102339.59;5099844;27;45498;-79
2022/02/09 07:34:20;;;;;;;;;33.50;29.00;;;;;2.93;85.47;102302.41;5099936;27;45475;-79
2022/02/09 07:36:46;;;;;;;;;45.75;37.00;;;;;2.87;85.44;102287.81;5099277;27;45378;-80
2022/02/09 07:39:12;;;;;;;;;39.25;36.50;;;;;2.86;85.05;102288.75;5099510;27;45894;-79
2022/02/09 07:41:44;;;;;;;;;34.00;32.75;;;;;3.27;84.93;102353.91;5099618;27;45447;-80
2022/02/09 07:54:01;;;;;;;;;36.25;34.50;;;;;3.41;84.50;102344.38;5099765;27;45301;-79
2022/02/09 07:56:29;;;;;;;;;37.50;34.25;;;;;3.42;84.36;102346.09;5099307;27;45428;-80
2022/02/09 07:58:54;;;;;;;;;40.50;35.00;;;;;3.48;84.07;102355.41;5095937;27;48382;-80
2022/02/09 08:01:20;;;;;;;;;46.75;39.25;;;;;3.45;84.42;102345.06;5090583;27;46264;-79
2022/02/09 08:03:45;;;;;;;;;47.50;41.25;;;;;3.43;84.17;102331.16;5111890;27;45427;-79
2022/02/09 08:06:11;;;;;;;;;51.75;44.00;;;;;3.44;84.42;102335.50;5118785;27;46183;-79
2022/02/09 08:08:40;;;;;;;;;56.00;46.00;;;;;3.38;84.82;102323.56;5118593;27;47201;-79
2022/02/09 08:30:08;;;;;;;;;49.00;41.00;;;;;3.59;86.17;102318.00;5102419;27;45984;-78
2022/02/09 08:32:40;;;;;;;;;42.50;37.25;;;;;3.69;85.75;102328.81;5102750;27;45200;-79
2022/02/09 08:35:07;;;;;;;;;55.25;46.50;;;;;3.62;86.20;102299.41;5100584;27;45532;-78
2022/02/09 08:37:32;;;;;;;;;52.75;45.75;;;;;3.89;86.46;102343.44;5096726;27;46138;-80
2022/02/09 08:39:58;;;;;;;;;41.25;36.75;;;;;3.94;86.49;102343.16;5080053;28;45653;-80
2022/02/09 08:42:24;;;;;;;;;41.75;36.00;;;;;4.00;86.53;102338.38;5080786;27;45595;-80
2022/02/09 08:44:49;;;;;;;;;35.00;32.50;;;;;4.06;86.29;102331.03;5081666;27;45226;-80
2022/02/09 08:47:15;;;;;;;;;33.25;32.00;;;;;4.14;87.03;102341.97;5080644;28;47093;-80
2022/02/09 08:49:40;;;;;;;;;33.00;31.50;;;;;4.13;86.09;102325.31;5081829;27;45615;-80
2022/02/09 08:52:06;;;;;;;;;31.50;29.00;;;;;4.25;86.71;102330.81;5079087;28;45706;-80
2022/02/09 08:54:32;;;;;;;;;35.00;31.25;;;;;4.23;86.41;102323.00;5077989;28;45351;-80
2022/02/09 08:57:02;;;;;;;;;28.75;28.75;;;;;4.31;86.76;102322.50;5077559;28;46119;-80
2022/02/09 08:59:28;;;;;;;;;31.75;30.00;;;;;4.31;86.11;102301.44;5077822;28;47793;-80
2022/02/09 09:02:01;;;;;;;;;23.75;18.00;;;;;4.44;86.23;102320.00;5078067;28;45930;-80
2022/02/09 09:04:32;;;;;;;;;32.75;28.75;;;;;4.57;86.69;102329.75;5080266;28;45335;-80
2022/02/09 09:07:04;;;;;;;;;30.25;28.00;;;;;4.44;86.34;102301.56;5080931;27;45474;-80
2022/02/09 09:40:20;;;;;;;;;23.75;22.50;;;;;5.05;86.71;102264.34;5122097;27;45899;-79
2022/02/09 10:01:20;;;;;;;;;23.00;21.50;;;;;5.93;86.02;102272.59;5121679;27;45290;-79
2022/02/09 10:04:04;;;;;;;;;21.00;21.00;;;;;6.02;86.44;102276.41;5120304;27;48180;-79
2022/02/09 10:37:46;;;;;;;;;21.33;18.33;;;;;6.69;85.14;102250.66;5100579;27;45248;-79
2022/02/09 10:40:33;;;;;;;;;20.67;17.33;;;;;6.87;84.81;102275.84;5100461;27;45276;-79
2022/02/09 10:43:01;;;;;;;;;16.67;16.00;;;;;6.86;84.61;102256.50;5100886;27;45161;-79
2022/02/09 10:45:38;;;;;;;;;20.00;18.00;;;;;6.81;84.70;102232.22;5099320;27;47313;-79
2022/02/09 10:48:08;;;;;;;;;20.00;20.00;;;;;7.07;84.92;102263.81;5098921;27;47092;-79
2022/02/09 10:50:36;;;;;;;;;18.00;17.00;;;;;7.04;83.82;102241.06;5099141;27;45970;-79
2022/02/09 10:53:05;;;;;;;;;18.00;16.33;;;;;7.22;83.91;102264.47;5099166;27;45354;-79
2022/02/09 10:55:31;;;;;;;;;16.33;16.33;;;;;7.28;82.85;102255.25;5100097;27;45465;-79
2022/02/09 10:57:57;;;;;;;;;17.00;16.00;;;;;7.29;83.58;102239.25;5100301;27;45246;-79
2022/02/09 11:00:24;;;;;;;;;17.33;15.67;;;;;7.40;82.82;102243.75;5099141;27;45716;-79
2022/02/09 11:02:50;;;;;;;;;15.00;15.00;;;;;7.52;82.68;102243.75;5099190;27;45206;-79
2022/02/09 11:05:19;;;;;;;;;18.67;18.33;;;;;7.58;82.41;102236.19;5098946;27;46225;-79
2022/02/09 11:07:45;;;;;;;;;18.33;16.67;;;;;7.67;81.45;102231.97;5100240;27;45477;-79
2022/02/09 11:10:11;;;;;;;;;16.33;15.00;;;;;7.78;81.41;102222.41;5100057;27;45306;-79
2022/02/09 11:12:37;;;;;;;;;18.67;18.00;;;;;7.83;81.57;102221.06;5098514;27;45350;-78
2022/02/09 11:15:04;;;;;;;;;17.00;16.33;;;;;8.00;81.02;102226.00;5098922;27;46003;-79
2022/02/09 11:17:32;;;;;;;;;17.67;16.67;;;;;7.89;80.64;102192.41;5103262;27;45169;-79
2022/02/09 11:19:57;;;;;;;;;17.33;16.67;;;;;8.09;80.28;102212.06;5120777;27;45335;-79
2022/02/09 11:22:24;;;;;;;;;18.33;16.00;;;;;8.20;80.39;102219.97;5120980;27;45298;-79
2022/02/09 11:25:14;;;;;;;;;15.67;15.33;;;;;8.26;80.15;102216.00;5119265;27;46181;-79
2022/02/09 11:27:47;;;;;;;;;17.67;16.00;;;;;8.19;79.58;102190.97;5120365;27;46446;-79
2022/02/09 11:30:38;;;;;;;;;19.33;17.67;;;;;8.36;79.14;102200.22;5119067;27;45158;-79
2022/02/09 11:33:22;;;;;;;;;19.00;18.33;;;;;8.53;78.52;102212.09;5120814;27;45312;-79
2022/02/09 11:36:04;;;;;;;;;18.33;17.67;;;;;8.54;78.55;102189.97;5120524;27;45242;-79
2022/02/09 11:38:44;;;;;;;;;18.67;18.67;;;;;8.75;78.08;102201.56;5120465;27;45991;-79
2022/02/09 11:41:17;;;;;;;;;14.33;14.33;;;;;8.80;78.75;102202.88;5118671;27;45360;-79
2022/02/09 11:43:56;;;;;;;;;15.67;15.67;;;;;8.91;77.79;102209.09;5120564;27;45243;-79
2022/02/09 11:46:39;;;;;;;;;17.33;15.67;;;;;9.00;77.72;102200.38;5121173;27;45466;-79
2022/02/09 12:14:03;;;;;;;;;17.33;16.00;;;;;9.51;76.00;102151.94;5060000;28;45293;-79
2022/02/09 12:17:12;;;;;;;;;18.00;16.33;;;;;9.60;75.72;102167.09;5110871;27;45379;-79
2022/02/09 12:19:43;;;;;;;;;18.00;16.33;;;;;9.69;75.69;102168.09;5083167;27;45211;-79
2022/02/09 12:22:17;;;;;;;;;19.00;19.00;;;;;9.71;74.55;102161.72;5082867;27;45281;-79
2022/02/09 12:24:43;;;;;;;;;16.00;14.33;;;;;9.82;75.13;102155.44;5083166;27;45319;-79
2022/02/09 12:27:10;;;;;;;;;19.00;17.67;;;;;9.88;74.94;102164.72;5082564;28;45277;-79
2022/02/09 12:29:44;;;;;;;;;17.67;15.00;;;;;10.01;74.45;102160.94;5082545;28;47224;-80
2022/02/09 12:32:16;;;;;;;;;18.00;16.33;;;;;10.08;73.71;102156.78;5082507;27;46253;-79
2022/02/09 12:34:56;;;;;;;;;16.67;16.67;;;;;10.04;73.88;102132.31;5082317;27;45277;-79
2022/02/09 12:37:22;;;;;;;;;21.67;21.00;;;;;10.17;72.81;102144.47;5083873;27;45341;-79
2022/02/09 12:40:07;;;;;;;;;23.00;23.00;;;;;10.18;73.06;102123.09;5080988;28;47253;-79
2022/02/09 12:42:35;;;;;;;;;25.00;24.33;;;;;10.31;73.42;102132.63;5081951;27;46220;-79
2022/02/09 12:45:10;;;;;;;;;19.00;18.33;;;;;10.39;73.37;102132.78;5080997;28;45236;-79
2022/02/09 12:47:42;;;;;;;;;22.00;18.33;;;;;10.40;73.32;102123.84;5080653;28;45264;-79
2022/02/09 12:50:14;;;;;;;;;21.33;19.67;;;;;10.51;73.20;102136.19;5081817;27;45473;-79
2022/02/09 12:52:41;;;;;;;;;17.00;17.00;;;;;10.43;72.91;102112.94;5080568;28;47506;-79
2022/02/09 12:55:12;;;;;;;;;22.33;19.67;;;;;10.42;73.28;102102.44;5081771;27;45321;-79
2022/02/09 12:58:01;;;;;;;;;22.00;21.00;;;;;10.64;72.85;102125.25;5081385;27;45226;-79
2022/02/09 13:00:33;;;;;;;;;21.67;20.67;;;;;10.78;71.70;102120.50;5081789;27;45332;-79
2022/02/09 13:03:04;;;;;;;;;18.67;17.33;;;;;11.04;72.63;102136.69;5080598;28;47070;-79
2022/02/09 13:05:40;;;;;;;;;21.00;21.00;;;;;11.18;72.25;102129.25;5082259;27;45302;-79
2022/02/09 13:08:05;;;;;;;;;21.33;19.00;;;;;11.21;70.93;102105.84;5080288;28;45188;-79
2022/02/09 13:10:33;;;;;;;;;20.00;17.33;;;;;11.13;71.75;102091.59;5081084;27;45219;-79
2022/02/09 13:13:14;;;;;;;;;19.67;19.67;;;;;11.10;71.15;102084.72;5081648;27;45272;-79
2022/02/09 14:58:01;;;;;;;;;18.67;18.67;;;;;21.05;48.96;102011.19;5058707;27;45539;-80
2022/02/09 15:00:27;;;;;;;;;18.33;17.67;;;;;21.00;48.34;101995.59;5101212;27;45242;-80
2022/02/09 15:03:01;;;;;;;;;16.67;16.67;;;;;20.42;48.53;101975.59;5099362;27;46994;-80
2022/02/09 15:23:57;;;;;;;;;16.67;14.33;;;;;15.31;54.08;101981.22;5125444;27;45789;-79
2022/02/09 15:26:22;;;;;;;;;16.00;14.67;;;;;14.96;54.99;101984.22;5124961;27;45220;-79
2022/02/09 15:28:50;;;;;;;;;16.00;14.33;;;;;14.72;55.51;101993.94;5125113;27;45240;-79
2022/02/09 15:31:40;;;;;;;;;18.67;18.67;;;;;14.41;56.14;101989.34;5123393;27;47068;-79
2022/02/09 15:34:14;;;;;;;;;16.67;16.00;;;;;14.11;57.03;101988.03;5124572;27;45367;-79
2022/02/09 15:39:13;;;;;;;;;18.33;18.33;;;;;13.61;58.03;101977.31;5124470;27;45414;-79
2022/02/09 15:41:58;;;;;;;;;18.00;16.67;;;;;13.35;58.46;101970.19;5124476;27;45316;-79
2022/02/09 15:58:46;;;;;;;;;19.00;18.67;;;;;12.15;61.77;101953.06;5093789;27;45320;-79
2022/02/09 16:38:36;;;;;;;;;17.00;15.33;;;;;10.19;66.33;101888.34;5079076;27;45816;-82
2022/02/09 16:44:19;;;;;;;;;15.67;14.67;;;;;10.28;66.90;101929.16;5095308;27;45582;-80
2022/02/09 16:46:52;;;;;;;;;18.00;17.00;;;;;10.04;67.38;101909.19;5094824;27;45378;-82
2022/02/09 16:49:30;;;;;;;;;15.00;14.33;;;;;9.94;67.82;101903.06;5092348;27;45342;-82
2022/02/09 17:19:00;;;;;;;;;35.75;33.00;;;;;8.84;69.64;101877.38;5101247;27;45338;-78
2022/02/09 17:21:28;;;;;;;;;35.00;33.00;;;;;8.95;70.01;101914.38;5089004;27;48458;-81
2022/02/09 17:23:57;;;;;;;;;40.75;36.50;;;;;8.94;70.15;101918.00;5106023;27;45303;-81
2022/02/09 17:26:24;;;;;;;;;44.00;38.75;;;;;8.88;70.35;101920.34;5096441;27;45431;-79
2022/02/09 17:28:59;;;;;;;;;43.00;36.75;;;;;8.82;70.75;101922.56;5099156;27;46950;-80
2022/02/09 17:31:34;;;;;;;;;41.50;36.25;;;;;8.73;70.68;101915.41;5101087;27;45353;-78
2022/02/09 17:57:52;;;;;;;;;57.00;47.00;;;;;7.90;72.42;101864.03;5101155;27;45303;-79
2022/02/09 18:00:19;;;;;;;;;60.50;48.50;;;;;7.88;72.30;101871.28;5099601;27;45828;-78
2022/02/09 18:02:47;;;;;;;;;59.25;48.75;;;;;8.00;72.84;101893.25;5101016;27;46485;-79
2022/02/09 18:05:19;;;;;;;;;63.50;51.75;;;;;8.05;72.47;101912.22;5100973;27;45284;-80
2022/02/09 18:07:49;;;;;;;;;63.25;51.00;;;;;8.02;73.27;101912.47;5100959;27;45311;-78
2022/02/09 18:10:32;;;;;;;;;60.25;50.00;;;;;7.88;72.88;101899.56;5100609;27;45315;-79
2022/02/09 18:13:23;;;;;;;;;62.25;50.75;;;;;7.80;73.45;101900.19;5099376;27;47716;-78
2022/02/09 18:25:15;;;;;;;;;46.50;41.00;;;;;7.56;74.00;101880.94;5121308;27;45214;-80
2022/02/09 18:29:41;;;;;;;;;45.25;37.25;;;;;7.63;74.40;101920.94;5121291;27;45299;-79
2022/02/09 18:48:01;;;;;;;;;49.50;42.00;;;;;7.16;74.82;101878.88;5099403;27;45289;-77
2022/02/09 19:03:53;;;;;;;;;54.50;46.00;;;;;7.09;75.80;101891.72;5099276;27;45491;-77
2022/02/09 19:06:26;;;;;;;;;64.50;50.75;;;;;7.12;75.66;101907.34;5110710;27;48223;-76
2022/02/09 19:09:01;;;;;;;;;59.25;48.50;;;;;7.06;75.75;101897.25;5120785;27;45288;-80
2022/02/09 19:14:26;;;;;;;;;64.00;51.50;;;;;7.02;75.62;101896.69;5089780;27;45461;-81
2022/02/09 19:16:59;;;;;;;;;51.75;44.00;;;;;6.94;75.95;101884.06;5096172;27;45681;-81
2022/02/09 19:28:55;;;;;;;;;63.00;52.25;;;;;6.79;76.82;101861.50;5082211;27;45781;-82
2022/02/09 19:30:58;;;;;;;;;60.75;49.50;;;;;6.76;76.53;101861.75;5089027;27;45386;-80
2022/02/09 19:48:41;;;;;;;;;67.75;54.00;;;;;6.60;76.90;101848.91;5094343;27;45673;-79
2022/02/09 19:56:29;;;;;;;;;57.75;48.75;;;;;6.50;76.46;101848.78;5042111;27;45308;-80
2022/02/09 19:58:59;;;;;;;;;62.00;51.50;;;;;6.44;77.19;101842.19;5103268;27;45813;-79
2022/02/09 20:01:33;;;;;;;;;59.50;49.00;;;;;6.36;77.33;101840.16;5099104;27;45404;-82
2022/02/09 20:03:58;;;;;;;;;57.00;47.25;;;;;6.20;77.06;101814.09;5086960;27;45525;-82
2022/02/09 20:06:24;;;;;;;;;59.25;48.00;;;;;6.34;77.78;101844.69;5093146;27;45299;-82
2022/02/09 20:08:49;;;;;;;;;57.25;46.00;;;;;6.27;77.69;101835.56;5092496;27;45387;-81
2022/02/09 20:11:16;;;;;;;;;56.75;45.25;;;;;6.30;77.65;101840.63;5088809;27;45429;-80
2022/02/09 20:13:42;;;;;;;;;61.75;51.25;;;;;6.18;77.67;101832.69;5091552;27;45401;-80
2022/02/09 20:16:08;;;;;;;;;60.25;49.75;;;;;6.27;77.90;101851.41;5088409;27;45374;-79
2022/02/09 20:18:34;;;;;;;;;62.75;51.00;;;;;6.15;78.30;101830.28;5105694;27;48016;-79
2022/02/09 20:21:00;;;;;;;;;68.50;54.00;;;;;6.21;78.29;101834.25;5088435;27;45310;-79
2022/02/09 20:23:27;;;;;;;;;62.75;51.75;;;;;6.18;78.05;101826.56;5092390;27;45597;-79
2022/02/09 20:25:53;;;;;;;;;59.50;49.25;;;;;6.08;77.74;101809.75;5091747;27;45391;-80
2022/02/09 20:28:19;;;;;;;;;67.75;55.00;;;;;6.16;78.19;101831.97;5087958;27;45325;-81
2022/02/09 20:30:51;;;;;;;;;65.75;52.25;;;;;6.02;78.18;101817.13;5099748;27;45377;-80
2022/02/09 20:33:20;;;;;;;;;62.00;51.25;;;;;6.11;77.84;101833.28;5089123;27;45253;-80
2022/02/09 20:35:46;;;;;;;;;59.50;49.50;;;;;6.00;77.70;101821.72;5094851;27;46169;-79
2022/02/09 20:38:17;;;;;;;;;62.00;50.00;;;;;5.97;78.35;101832.50;5088656;27;46056;-79
2022/02/09 20:40:49;;;;;;;;;64.25;51.00;;;;;5.98;78.46;101830.72;5092315;27;45303;-80
2022/02/09 20:43:17;;;;;;;;;59.25;49.25;;;;;5.88;78.61;101814.72;5097483;27;45441;-80
2022/02/09 20:45:54;;;;;;;;;63.00;51.00;;;;;5.91;78.50;101828.53;5093565;27;46179;-81
2022/02/09 20:48:25;;;;;;;;;63.75;50.75;;;;;5.95;79.06;101834.41;5100223;27;45908;-77
2022/02/09 20:50:51;;;;;;;;;78.00;62.25;;;;;5.89;78.56;101825.16;5104399;27;45302;-79
2022/02/09 20:53:18;;;;;;;;;65.25;52.75;;;;;5.83;78.32;101817.69;5106958;27;45339;-78
2022/02/09 20:55:44;;;;;;;;;58.75;49.75;;;;;5.73;78.41;101806.16;5104273;27;45584;-80
2022/02/09 20:58:09;;;;;;;;;57.75;47.25;;;;;5.69;78.43;101806.41;5110365;27;45326;-79
2022/02/09 21:03:14;;;;;;;;;79.00;67.25;;;;;5.73;79.26;101830.75;5123011;27;45198;-79
2022/02/09 21:13:33;;;;;;;;;81.50;71.75;;;;;5.64;79.00;101818.25;5123093;27;45170;-79
2022/02/09 22:00:27;;;;;;;;;76.75;62.00;;;;;5.16;79.55;101820.81;5108310;27;46829;-79
2022/02/09 22:27:08;;;;;;;;;64.00;51.25;;;;;4.56;79.72;101789.09;5101057;27;45228;-79
2022/02/09 22:30:06;;;;;;;;;68.00;55.75;;;;;4.58;80.10;101792.44;5099475;27;46547;-79
2022/02/09 22:48:23;;;;;;;;;78.25;62.50;;;;;4.51;81.18;101799.06;5100817;27;45359;-79
2022/02/09 22:54:26;;;;;;;;;78.50;61.75;;;;;4.51;81.20;101796.44;5100661;27;45308;-79
2022/02/09 22:56:28;;;;;;;;;69.75;54.00;;;;;4.40;81.29;101790.16;5100284;27;45353;-79
2022/02/09 22:58:54;;;;;;;;;61.50;50.50;;;;;4.53;81.04;101803.31;5100859;27;45322;-79
2022/02/09 23:01:35;;;;;;;;;70.50;54.50;;;;;4.58;81.31;101795.06;5100633;27;45334;-79
2022/02/09 23:04:32;;;;;;;;;72.25;55.75;;;;;4.60;81.01;101785.28;5100483;27;45410;-79
2022/02/09 23:07:45;;;;;;;;;69.25;55.75;;;;;4.75;81.29;101803.56;5100368;27;45283;-79
2022/02/09 23:17:34;;;;;;;;;75.00;59.00;;;;;4.89;81.72;101777.09;5100202;27;45229;-79
